sensor_id;sensor_type;location;lat;lon;timestamp;temperature;humidity
4828;DHT22;2428;48.732;9.148;2023-12-20T00:00:17;5.80;99.90
4828;DHT22;2428;48.732;9.148;2023-12-20T00:02:43;5.80;99.90
4828;DHT22;2428;48.732;9.148;2023-12-20T00:05:15;5.80;99.90
4828;DHT22;2428;48.732;9.148;2023-12-20T00:07:41;5.80;99.90
4828;DHT22;2428;48.732;9.148;2023-12-20T00:10:06;5.70;99.90
4828;DHT22;2428;48.732;9.148;2023-12-20T00:12:32;5.80;99.90
4828;DHT22;2428;48.732;9.148;2023-12-20T00:14:58;5.80;99.90
4828;DHT22;2428;48.732;9.148;2023-12-20T00:17:23;5.80;99.90
4828;DHT22;2428;48.732;9.148;2023-12-20T00:19:49;5.80;99.90
4828;DHT22;2428;48.732;9.148;2023-12-20T00:22:14;5.80;99.90
4828;DHT22;2428;48.732;9.148;2023-12-20T00:24:40;5.80;99.90
4828;DHT22;2428;48.732;9.148;2023-12-20T00:27:06;5.80;99.90
4828;DHT22;2428;48.732;9.148;2023-12-20T00:29:31;5.90;99.90
4828;DHT22;2428;48.732;9.148;2023-12-20T00:31:57;5.80;99.90
4828;DHT22;2428;48.732;9.148;2023-12-20T00:34:22;5.80;99.90
4828;DHT22;2428;48.732;9.148;2023-12-20T00:36:48;5.80;99.90
4828;DHT22;2428;48.732;9.148;2023-12-20T00:39:13;5.80;99.90
4828;DHT22;2428;48.732;9.148;2023-12-20T00:41:39;5.80;99.90
4828;DHT22;2428;48.732;9.148;2023-12-20T00:44:04;5.80;99.90
4828;DHT22;2428;48.732;9.148;2023-12-20T00:46:30;5.70;99.90
4828;DHT22;2428;48.732;9.148;2023-12-20T00:48:55;5.70;99.90
4828;DHT22;2428;48.732;9.148;2023-12-20T00:51:21;5.70;99.90
4828;DHT22;2428;48.732;9.148;2023-12-20T00:53:49;5.60;99.90
4828;DHT22;2428;48.732;9.148;2023-12-20T00:56:15;5.60;99.90
4828;DHT22;2428;48.732;9.148;2023-12-20T00:58:41;5.50;99.90
4828;DHT22;2428;48.732;9.148;2023-12-20T01:01:06;5.50;99.90
4828;DHT22;2428;48.732;9.148;2023-12-20T01:03:32;5.50;99.90
4828;DHT22;2428;48.732;9.148;2023-12-20T01:05:57;5.40;99.90
4828;DHT22;2428;48.732;9.148;2023-12-20T01:08:23;5.40;99.90
4828;DHT22;2428;48.732;9.148;2023-12-20T01:10:49;5.40;99.90
4828;DHT22;2428;48.732;9.148;2023-12-20T01:13:14;5.40;99.90
4828;DHT22;2428;48.732;9.148;2023-12-20T01:15:40;5.40;99.90
4828;DHT22;2428;48.732;9.148;2023-12-20T01:18:05;5.40;99.90
4828;DHT22;2428;48.732;9.148;2023-12-20T01:20:31;5.30;99.90
4828;DHT22;2428;48.732;9.148;2023-12-20T01:22:57;5.30;99.90
4828;DHT22;2428;48.732;9.148;2023-12-20T01:25:22;5.30;99.90
4828;DHT22;2428;48.732;9.148;2023-12-20T01:27:48;5.30;99.90
4828;DHT22;2428;48.732;9.148;2023-12-20T01:30:14;5.30;99.90
4828;DHT22;2428;48.732;9.148;2023-12-20T01:32:40;5.20;99.90
4828;DHT22;2428;48.732;9.148;2023-12-20T01:35:05;5.20;99.90
4828;DHT22;2428;48.732;9.148;2023-12-20T01:37:31;5.20;99.90
4828;DHT22;2428;48.732;9.148;2023-12-20T01:39:57;5.20;99.90
4828;DHT22;2428;48.732;9.148;2023-12-20T01:42:24;5.20;99.90
4828;DHT22;2428;48.732;9.148;2023-12-20T01:44:49;5.20;99.90
4828;DHT22;2428;48.732;9.148;2023-12-20T01:47:15;5.20;99.90
4828;DHT22;2428;48.732;9.148;2023-12-20T01:49:41;5.20;99.90
4828;DHT22;2428;48.732;9.148;2023-12-20T01:52:07;5.20;99.90
4828;DHT22;2428;48.732;9.148;2023-12-20T01:54:35;5.20;99.90
4828;DHT22;2428;48.732;9.148;2023-12-20T01:57:01;5.20;99.90
4828;DHT22;2428;48.732;9.148;2023-12-20T01:59:28;5.20;99.90
4828;DHT22;2428;48.732;9.148;2023-12-20T02:01:55;5.20;99.90
4828;DHT22;2428;48.732;9.148;2023-12-20T02:04:20;5.20;99.90
4828;DHT22;2428;48.732;9.148;2023-12-20T02:06:46;5.20;99.90
4828;DHT22;2428;48.732;9.148;2023-12-20T02:09:12;5.20;99.90
4828;DHT22;2428;48.732;9.148;2023-12-20T02:11:38;5.20;99.90
4828;DHT22;2428;48.732;9.148;2023-12-20T02:14:04;5.20;99.90
4828;DHT22;2428;48.732;9.148;2023-12-20T02:16:30;5.20;99.90
4828;DHT22;2428;48.732;9.148;2023-12-20T02:18:55;5.20;99.90
4828;DHT22;2428;48.732;9.148;2023-12-20T02:21:39;5.30;99.90
4828;DHT22;2428;48.732;9.148;2023-12-20T02:24:05;5.30;99.90
4828;DHT22;2428;48.732;9.148;2023-12-20T02:26:32;5.30;99.90
4828;DHT22;2428;48.732;9.148;2023-12-20T02:28:59;5.30;99.90
4828;DHT22;2428;48.732;9.148;2023-12-20T02:31:25;5.30;99.90
4828;DHT22;2428;48.732;9.148;2023-12-20T02:33:50;5.30;99.90
4828;DHT22;2428;48.732;9.148;2023-12-20T02:36:16;5.30;99.90
4828;DHT22;2428;48.732;9.148;2023-12-20T02:38:42;5.30;99.90
4828;DHT22;2428;48.732;9.148;2023-12-20T02:41:07;5.30;99.90
4828;DHT22;2428;48.732;9.148;2023-12-20T02:43:33;5.30;99.90
4828;DHT22;2428;48.732;9.148;2023-12-20T02:45:58;5.30;99.90
4828;DHT22;2428;48.732;9.148;2023-12-20T02:48:24;5.30;99.90
4828;DHT22;2428;48.732;9.148;2023-12-20T02:50:49;5.30;99.90
4828;DHT22;2428;48.732;9.148;2023-12-20T02:53:15;5.30;99.90
4828;DHT22;2428;48.732;9.148;2023-12-20T02:55:41;5.30;99.90
4828;DHT22;2428;48.732;9.148;2023-12-20T02:58:06;5.30;99.90
4828;DHT22;2428;48.732;9.148;2023-12-20T03:00:32;5.30;99.90
4828;DHT22;2428;48.732;9.148;2023-12-20T03:02:57;5.30;99.90
4828;DHT22;2428;48.732;9.148;2023-12-20T03:05:25;5.30;99.90
4828;DHT22;2428;48.732;9.148;2023-12-20T03:07:50;5.30;99.90
4828;DHT22;2428;48.732;9.148;2023-12-20T03:10:16;5.30;99.90
4828;DHT22;2428;48.732;9.148;2023-12-20T03:12:42;5.30;99.90
4828;DHT22;2428;48.732;9.148;2023-12-20T03:15:07;5.40;99.90
4828;DHT22;2428;48.732;9.148;2023-12-20T03:17:33;5.40;99.90
4828;DHT22;2428;48.732;9.148;2023-12-20T03:19:59;5.40;99.90
4828;DHT22;2428;48.732;9.148;2023-12-20T03:22:24;5.40;99.90
4828;DHT22;2428;48.732;9.148;2023-12-20T03:24:50;5.40;99.90
4828;DHT22;2428;48.732;9.148;2023-12-20T03:27:15;5.40;99.90
4828;DHT22;2428;48.732;9.148;2023-12-20T03:29:41;5.40;99.90
4828;DHT22;2428;48.732;9.148;2023-12-20T03:32:06;5.40;99.90
4828;DHT22;2428;48.732;9.148;2023-12-20T03:34:33;5.40;99.90
4828;DHT22;2428;48.732;9.148;2023-12-20T03:36:59;5.30;99.90
4828;DHT22;2428;48.732;9.148;2023-12-20T03:39:25;5.30;99.90
4828;DHT22;2428;48.732;9.148;2023-12-20T03:41:50;5.30;99.90
4828;DHT22;2428;48.732;9.148;2023-12-20T03:44:16;5.30;99.90
4828;DHT22;2428;48.732;9.148;2023-12-20T03:46:41;5.30;99.90
4828;DHT22;2428;48.732;9.148;2023-12-20T03:49:07;5.20;99.90
4828;DHT22;2428;48.732;9.148;2023-12-20T03:51:32;5.20;99.90
4828;DHT22;2428;48.732;9.148;2023-12-20T03:53:58;5.20;99.90
4828;DHT22;2428;48.732;9.148;2023-12-20T03:56:23;5.20;99.90
4828;DHT22;2428;48.732;9.148;2023-12-20T03:58:49;5.20;99.90
4828;DHT22;2428;48.732;9.148;2023-12-20T04:01:15;5.10;99.90
4828;DHT22;2428;48.732;9.148;2023-12-20T04:03:40;5.20;99.90
4828;DHT22;2428;48.732;9.148;2023-12-20T04:06:06;5.20;99.90
4828;DHT22;2428;48.732;9.148;2023-12-20T04:08:31;5.10;99.90
4828;DHT22;2428;48.732;9.148;2023-12-20T04:10:57;5.10;99.90
4828;DHT22;2428;48.732;9.148;2023-12-20T04:13:22;5.10;99.90
4828;DHT22;2428;48.732;9.148;2023-12-20T04:15:48;5.10;99.90
4828;DHT22;2428;48.732;9.148;2023-12-20T04:18:16;5.10;99.90
4828;DHT22;2428;48.732;9.148;2023-12-20T04:20:41;5.00;99.90
4828;DHT22;2428;48.732;9.148;2023-12-20T04:23:07;5.00;99.90
4828;DHT22;2428;48.732;9.148;2023-12-20T04:25:32;5.00;99.90
4828;DHT22;2428;48.732;9.148;2023-12-20T04:27:58;5.00;99.90
4828;DHT22;2428;48.732;9.148;2023-12-20T04:30:23;5.00;99.90
4828;DHT22;2428;48.732;9.148;2023-12-20T04:32:49;5.00;99.90
4828;DHT22;2428;48.732;9.148;2023-12-20T04:35:15;5.00;99.90
4828;DHT22;2428;48.732;9.148;2023-12-20T04:37:40;4.90;99.90
4828;DHT22;2428;48.732;9.148;2023-12-20T04:40:06;4.90;99.90
4828;DHT22;2428;48.732;9.148;2023-12-20T04:42:33;4.90;99.90
4828;DHT22;2428;48.732;9.148;2023-12-20T04:44:58;4.90;99.90
4828;DHT22;2428;48.732;9.148;2023-12-20T04:47:24;4.90;99.90
4828;DHT22;2428;48.732;9.148;2023-12-20T04:49:50;4.90;99.90
4828;DHT22;2428;48.732;9.148;2023-12-20T04:52:15;4.90;99.90
4828;DHT22;2428;48.732;9.148;2023-12-20T04:54:41;4.90;99.90
4828;DHT22;2428;48.732;9.148;2023-12-20T04:57:06;4.90;99.90
4828;DHT22;2428;48.732;9.148;2023-12-20T04:59:32;4.90;99.90
4828;DHT22;2428;48.732;9.148;2023-12-20T05:01:57;4.90;99.90
4828;DHT22;2428;48.732;9.148;2023-12-20T05:04:23;4.90;99.90
4828;DHT22;2428;48.732;9.148;2023-12-20T05:06:49;4.90;99.90
4828;DHT22;2428;48.732;9.148;2023-12-20T05:09:15;4.90;99.90
4828;DHT22;2428;48.732;9.148;2023-12-20T05:11:41;4.80;99.90
4828;DHT22;2428;48.732;9.148;2023-12-20T05:14:07;4.90;99.90
4828;DHT22;2428;48.732;9.148;2023-12-20T05:16:32;4.90;99.90
4828;DHT22;2428;48.732;9.148;2023-12-20T05:18:58;4.80;99.90
4828;DHT22;2428;48.732;9.148;2023-12-20T05:21:26;4.80;99.90
4828;DHT22;2428;48.732;9.148;2023-12-20T05:23:51;4.80;99.90
4828;DHT22;2428;48.732;9.148;2023-12-20T05:26:17;4.80;99.90
4828;DHT22;2428;48.732;9.148;2023-12-20T05:28:43;4.80;99.90
4828;DHT22;2428;48.732;9.148;2023-12-20T05:31:08;4.80;99.90
4828;DHT22;2428;48.732;9.148;2023-12-20T05:33:34;4.80;99.90
4828;DHT22;2428;48.732;9.148;2023-12-20T05:35:59;4.80;99.90
4828;DHT22;2428;48.732;9.148;2023-12-20T05:38:25;4.80;99.90
4828;DHT22;2428;48.732;9.148;2023-12-20T05:40:51;4.80;99.90
4828;DHT22;2428;48.732;9.148;2023-12-20T05:43:16;4.80;99.90
4828;DHT22;2428;48.732;9.148;2023-12-20T05:45:42;4.80;99.90
4828;DHT22;2428;48.732;9.148;2023-12-20T05:48:08;4.80;99.90
4828;DHT22;2428;48.732;9.148;2023-12-20T05:50:33;4.80;99.90
4828;DHT22;2428;48.732;9.148;2023-12-20T05:53:00;4.90;99.90
4828;DHT22;2428;48.732;9.148;2023-12-20T05:55:25;4.90;99.90
4828;DHT22;2428;48.732;9.148;2023-12-20T05:57:51;4.80;99.90
4828;DHT22;2428;48.732;9.148;2023-12-20T06:00:17;4.80;99.90
4828;DHT22;2428;48.732;9.148;2023-12-20T06:02:43;4.80;99.90
4828;DHT22;2428;48.732;9.148;2023-12-20T06:05:09;4.80;99.90
4828;DHT22;2428;48.732;9.148;2023-12-20T06:07:34;4.90;99.90
4828;DHT22;2428;48.732;9.148;2023-12-20T06:10:00;4.90;99.90
4828;DHT22;2428;48.732;9.148;2023-12-20T06:12:25;4.80;99.90
4828;DHT22;2428;48.732;9.148;2023-12-20T06:14:55;4.80;99.90
4828;DHT22;2428;48.732;9.148;2023-12-20T06:17:22;4.80;99.90
4828;DHT22;2428;48.732;9.148;2023-12-20T06:19:48;4.80;99.90
4828;DHT22;2428;48.732;9.148;2023-12-20T06:22:15;4.80;99.90
4828;DHT22;2428;48.732;9.148;2023-12-20T06:24:40;4.80;99.90
4828;DHT22;2428;48.732;9.148;2023-12-20T06:27:06;4.80;99.90
4828;DHT22;2428;48.732;9.148;2023-12-20T06:29:31;4.80;99.90
4828;DHT22;2428;48.732;9.148;2023-12-20T06:31:57;4.90;99.90
4828;DHT22;2428;48.732;9.148;2023-12-20T06:34:22;4.80;99.90
4828;DHT22;2428;48.732;9.148;2023-12-20T06:36:48;4.80;99.90
4828;DHT22;2428;48.732;9.148;2023-12-20T06:39:14;4.90;99.90
4828;DHT22;2428;48.732;9.148;2023-12-20T06:41:39;4.90;99.90
4828;DHT22;2428;48.732;9.148;2023-12-20T06:44:05;4.80;99.90
4828;DHT22;2428;48.732;9.148;2023-12-20T06:46:31;4.80;99.90
4828;DHT22;2428;48.732;9.148;2023-12-20T06:48:56;4.90;99.90
4828;DHT22;2428;48.732;9.148;2023-12-20T06:51:22;4.90;99.90
4828;DHT22;2428;48.732;9.148;2023-12-20T06:53:51;4.90;99.90
4828;DHT22;2428;48.732;9.148;2023-12-20T06:56:17;4.90;99.90
4828;DHT22;2428;48.732;9.148;2023-12-20T06:58:42;4.90;99.90
4828;DHT22;2428;48.732;9.148;2023-12-20T07:01:12;4.90;99.90
4828;DHT22;2428;48.732;9.148;2023-12-20T07:03:38;4.90;99.90
4828;DHT22;2428;48.732;9.148;2023-12-20T07:06:03;5.00;99.90
4828;DHT22;2428;48.732;9.148;2023-12-20T07:08:29;5.00;99.90
4828;DHT22;2428;48.732;9.148;2023-12-20T07:10:55;5.00;99.90
4828;DHT22;2428;48.732;9.148;2023-12-20T07:13:20;5.00;99.90
4828;DHT22;2428;48.732;9.148;2023-12-20T07:15:46;5.00;99.90
4828;DHT22;2428;48.732;9.148;2023-12-20T07:18:11;5.00;99.90
4828;DHT22;2428;48.732;9.148;2023-12-20T07:20:37;5.10;99.90
4828;DHT22;2428;48.732;9.148;2023-12-20T07:23:03;5.10;99.90
4828;DHT22;2428;48.732;9.148;2023-12-20T07:25:28;5.10;99.90
4828;DHT22;2428;48.732;9.148;2023-12-20T07:27:55;5.10;99.90
4828;DHT22;2428;48.732;9.148;2023-12-20T07:30:21;5.10;99.90
4828;DHT22;2428;48.732;9.148;2023-12-20T07:32:46;5.10;99.90
4828;DHT22;2428;48.732;9.148;2023-12-20T07:35:12;5.10;99.90
4828;DHT22;2428;48.732;9.148;2023-12-20T07:37:38;5.10;99.90
4828;DHT22;2428;48.732;9.148;2023-12-20T07:40:04;5.10;99.90
4828;DHT22;2428;48.732;9.148;2023-12-20T07:42:30;5.00;99.90
4828;DHT22;2428;48.732;9.148;2023-12-20T07:44:55;5.00;99.90
4828;DHT22;2428;48.732;9.148;2023-12-20T07:47:21;5.00;99.90
4828;DHT22;2428;48.732;9.148;2023-12-20T07:49:48;4.90;99.90
4828;DHT22;2428;48.732;9.148;2023-12-20T07:52:14;4.90;99.90
4828;DHT22;2428;48.732;9.148;2023-12-20T07:54:40;4.90;99.90
4828;DHT22;2428;48.732;9.148;2023-12-20T07:57:05;4.90;99.90
4828;DHT22;2428;48.732;9.148;2023-12-20T07:59:31;4.80;99.90
4828;DHT22;2428;48.732;9.148;2023-12-20T08:01:56;4.80;99.90
4828;DHT22;2428;48.732;9.148;2023-12-20T08:04:22;4.80;99.90
4828;DHT22;2428;48.732;9.148;2023-12-20T08:06:47;4.80;99.90
4828;DHT22;2428;48.732;9.148;2023-12-20T08:09:13;4.80;99.90
4828;DHT22;2428;48.732;9.148;2023-12-20T08:11:39;4.80;99.90
4828;DHT22;2428;48.732;9.148;2023-12-20T08:14:04;4.80;99.90
4828;DHT22;2428;48.732;9.148;2023-12-20T08:16:30;4.70;99.90
4828;DHT22;2428;48.732;9.148;2023-12-20T08:18:55;4.80;99.90
4828;DHT22;2428;48.732;9.148;2023-12-20T08:21:21;4.70;99.90
4828;DHT22;2428;48.732;9.148;2023-12-20T08:23:48;4.70;99.90
4828;DHT22;2428;48.732;9.148;2023-12-20T08:26:13;4.70;99.90
4828;DHT22;2428;48.732;9.148;2023-12-20T08:28:39;4.70;99.90
4828;DHT22;2428;48.732;9.148;2023-12-20T08:31:04;4.70;99.90
4828;DHT22;2428;48.732;9.148;2023-12-20T08:33:30;4.70;99.90
4828;DHT22;2428;48.732;9.148;2023-12-20T08:35:55;4.70;99.90
4828;DHT22;2428;48.732;9.148;2023-12-20T08:38:21;4.70;99.90
4828;DHT22;2428;48.732;9.148;2023-12-20T08:40:47;4.80;99.90
4828;DHT22;2428;48.732;9.148;2023-12-20T08:43:13;4.70;99.90
4828;DHT22;2428;48.732;9.148;2023-12-20T08:45:39;4.70;99.90
4828;DHT22;2428;48.732;9.148;2023-12-20T08:48:05;4.80;99.90
4828;DHT22;2428;48.732;9.148;2023-12-20T08:50:31;4.70;99.90
4828;DHT22;2428;48.732;9.148;2023-12-20T08:52:56;4.70;99.90
4828;DHT22;2428;48.732;9.148;2023-12-20T08:55:22;4.70;99.90
4828;DHT22;2428;48.732;9.148;2023-12-20T08:57:48;4.70;99.90
4828;DHT22;2428;48.732;9.148;2023-12-20T09:00:14;4.60;99.90
4828;DHT22;2428;48.732;9.148;2023-12-20T09:02:41;4.60;99.90
4828;DHT22;2428;48.732;9.148;2023-12-20T09:05:07;4.60;99.90
4828;DHT22;2428;48.732;9.148;2023-12-20T09:07:32;4.60;99.90
4828;DHT22;2428;48.732;9.148;2023-12-20T09:09:58;4.60;99.90
4828;DHT22;2428;48.732;9.148;2023-12-20T09:12:24;4.80;99.90
4828;DHT22;2428;48.732;9.148;2023-12-20T09:14:51;5.40;99.90
4828;DHT22;2428;48.732;9.148;2023-12-20T09:17:17;6.80;99.90
4828;DHT22;2428;48.732;9.148;2023-12-20T09:19:44;8.50;99.90
4828;DHT22;2428;48.732;9.148;2023-12-20T09:22:10;10.10;99.90
4828;DHT22;2428;48.732;9.148;2023-12-20T09:24:36;12.10;99.90
4828;DHT22;2428;48.732;9.148;2023-12-20T09:27:02;13.40;99.90
4828;DHT22;2428;48.732;9.148;2023-12-20T09:29:28;13.50;99.90
4828;DHT22;2428;48.732;9.148;2023-12-20T09:31:54;14.40;99.90
4828;DHT22;2428;48.732;9.148;2023-12-20T09:34:19;14.00;99.90
4828;DHT22;2428;48.732;9.148;2023-12-20T09:36:47;13.70;99.90
4828;DHT22;2428;48.732;9.148;2023-12-20T09:39:14;15.00;99.90
4828;DHT22;2428;48.732;9.148;2023-12-20T09:41:44;17.20;99.90
4828;DHT22;2428;48.732;9.148;2023-12-20T09:44:16;17.60;97.10
4828;DHT22;2428;48.732;9.148;2023-12-20T09:46:47;15.60;95.80
4828;DHT22;2428;48.732;9.148;2023-12-20T09:49:15;14.20;99.90
4828;DHT22;2428;48.732;9.148;2023-12-20T09:51:42;12.20;99.90
4828;DHT22;2428;48.732;9.148;2023-12-20T09:54:09;10.20;99.90
4828;DHT22;2428;48.732;9.148;2023-12-20T09:56:35;8.60;99.90
4828;DHT22;2428;48.732;9.148;2023-12-20T09:59:02;7.60;99.90
4828;DHT22;2428;48.732;9.148;2023-12-20T10:01:28;7.10;99.90
4828;DHT22;2428;48.732;9.148;2023-12-20T10:03:55;6.90;99.90
4828;DHT22;2428;48.732;9.148;2023-12-20T10:06:21;6.60;99.90
4828;DHT22;2428;48.732;9.148;2023-12-20T10:08:47;6.30;99.90
4828;DHT22;2428;48.732;9.148;2023-12-20T10:11:16;6.00;99.90
4828;DHT22;2428;48.732;9.148;2023-12-20T10:13:42;5.70;99.90
4828;DHT22;2428;48.732;9.148;2023-12-20T10:16:08;5.70;99.90
4828;DHT22;2428;48.732;9.148;2023-12-20T10:18:33;5.80;99.90
4828;DHT22;2428;48.732;9.148;2023-12-20T10:21:00;5.90;99.90
4828;DHT22;2428;48.732;9.148;2023-12-20T10:23:26;5.90;99.90
4828;DHT22;2428;48.732;9.148;2023-12-20T10:26:00;5.90;99.90
4828;DHT22;2428;48.732;9.148;2023-12-20T10:28:26;5.90;99.90
4828;DHT22;2428;48.732;9.148;2023-12-20T10:30:55;5.70;99.90
4828;DHT22;2428;48.732;9.148;2023-12-20T10:33:28;5.60;99.90
4828;DHT22;2428;48.732;9.148;2023-12-20T10:35:59;5.50;99.90
4828;DHT22;2428;48.732;9.148;2023-12-20T10:38:25;5.50;99.90
4828;DHT22;2428;48.732;9.148;2023-12-20T10:40:55;5.50;99.90
4828;DHT22;2428;48.732;9.148;2023-12-20T10:43:23;5.50;99.90
4828;DHT22;2428;48.732;9.148;2023-12-20T10:45:51;5.50;99.90
4828;DHT22;2428;48.732;9.148;2023-12-20T10:48:18;5.40;99.90
4828;DHT22;2428;48.732;9.148;2023-12-20T10:50:44;5.40;99.90
4828;DHT22;2428;48.732;9.148;2023-12-20T10:53:10;5.40;99.90
4828;DHT22;2428;48.732;9.148;2023-12-20T10:55:38;5.40;99.90
4828;DHT22;2428;48.732;9.148;2023-12-20T10:58:07;5.40;99.90
4828;DHT22;2428;48.732;9.148;2023-12-20T11:00:38;5.30;99.90
4828;DHT22;2428;48.732;9.148;2023-12-20T11:03:06;5.30;99.90
4828;DHT22;2428;48.732;9.148;2023-12-20T11:08:40;5.30;99.90
4828;DHT22;2428;48.732;9.148;2023-12-20T11:11:19;5.30;99.90
4828;DHT22;2428;48.732;9.148;2023-12-20T11:14:06;5.30;99.90
4828;DHT22;2428;48.732;9.148;2023-12-20T11:16:37;5.40;99.90
4828;DHT22;2428;48.732;9.148;2023-12-20T11:19:06;5.50;99.90
4828;DHT22;2428;48.732;9.148;2023-12-20T11:21:32;5.40;99.90
4828;DHT22;2428;48.732;9.148;2023-12-20T11:23:59;5.50;99.90
4828;DHT22;2428;48.732;9.148;2023-12-20T11:26:28;5.50;99.90
4828;DHT22;2428;48.732;9.148;2023-12-20T11:29:13;5.50;99.90
4828;DHT22;2428;48.732;9.148;2023-12-20T11:31:40;5.40;99.90
4828;DHT22;2428;48.732;9.148;2023-12-20T11:34:17;5.40;99.90
4828;DHT22;2428;48.732;9.148;2023-12-20T11:36:42;5.30;99.90
4828;DHT22;2428;48.732;9.148;2023-12-20T11:39:08;5.30;99.90
4828;DHT22;2428;48.732;9.148;2023-12-20T11:41:36;5.30;99.90
4828;DHT22;2428;48.732;9.148;2023-12-20T11:44:04;5.30;99.90
4828;DHT22;2428;48.732;9.148;2023-12-20T11:46:31;5.30;99.90
4828;DHT22;2428;48.732;9.148;2023-12-20T11:48:56;5.30;99.90
4828;DHT22;2428;48.732;9.148;2023-12-20T11:51:22;5.30;99.90
4828;DHT22;2428;48.732;9.148;2023-12-20T11:53:51;5.30;99.90
4828;DHT22;2428;48.732;9.148;2023-12-20T11:56:17;5.30;99.90
4828;DHT22;2428;48.732;9.148;2023-12-20T11:58:43;5.20;99.90
4828;DHT22;2428;48.732;9.148;2023-12-20T12:01:09;5.20;99.90
4828;DHT22;2428;48.732;9.148;2023-12-20T12:03:34;5.20;99.90
4828;DHT22;2428;48.732;9.148;2023-12-20T12:06:00;5.20;99.90
4828;DHT22;2428;48.732;9.148;2023-12-20T12:08:26;5.20;99.90
4828;DHT22;2428;48.732;9.148;2023-12-20T12:10:52;5.10;99.90
4828;DHT22;2428;48.732;9.148;2023-12-20T12:13:17;5.10;99.90
4828;DHT22;2428;48.732;9.148;2023-12-20T12:15:43;5.10;99.90
4828;DHT22;2428;48.732;9.148;2023-12-20T12:18:09;5.10;99.90
4828;DHT22;2428;48.732;9.148;2023-12-20T12:20:36;5.10;99.90
4828;DHT22;2428;48.732;9.148;2023-12-20T12:23:04;5.20;99.90
4828;DHT22;2428;48.732;9.148;2023-12-20T12:25:31;5.20;99.90
4828;DHT22;2428;48.732;9.148;2023-12-20T12:27:57;5.20;99.90
4828;DHT22;2428;48.732;9.148;2023-12-20T12:30:24;5.20;99.90
4828;DHT22;2428;48.732;9.148;2023-12-20T12:32:51;5.20;99.90
4828;DHT22;2428;48.732;9.148;2023-12-20T12:35:17;5.30;99.90
4828;DHT22;2428;48.732;9.148;2023-12-20T12:37:43;5.30;99.90
4828;DHT22;2428;48.732;9.148;2023-12-20T12:40:13;5.30;99.90
4828;DHT22;2428;48.732;9.148;2023-12-20T12:42:40;5.30;99.90
4828;DHT22;2428;48.732;9.148;2023-12-20T12:45:07;5.40;99.90
4828;DHT22;2428;48.732;9.148;2023-12-20T12:47:33;5.40;99.90
4828;DHT22;2428;48.732;9.148;2023-12-20T12:49:59;5.50;99.90
4828;DHT22;2428;48.732;9.148;2023-12-20T12:52:25;5.50;99.90
4828;DHT22;2428;48.732;9.148;2023-12-20T12:54:52;5.40;99.90
4828;DHT22;2428;48.732;9.148;2023-12-20T12:57:18;5.40;99.90
4828;DHT22;2428;48.732;9.148;2023-12-20T12:59:44;5.40;99.90
4828;DHT22;2428;48.732;9.148;2023-12-20T13:02:14;5.40;99.90
4828;DHT22;2428;48.732;9.148;2023-12-20T13:04:41;5.30;99.90
4828;DHT22;2428;48.732;9.148;2023-12-20T13:07:07;5.40;99.90
4828;DHT22;2428;48.732;9.148;2023-12-20T13:09:33;5.40;99.90
4828;DHT22;2428;48.732;9.148;2023-12-20T13:11:59;5.40;99.90
4828;DHT22;2428;48.732;9.148;2023-12-20T13:14:25;5.50;99.90
4828;DHT22;2428;48.732;9.148;2023-12-20T13:16:50;5.50;99.90
4828;DHT22;2428;48.732;9.148;2023-12-20T13:19:16;5.50;99.90
4828;DHT22;2428;48.732;9.148;2023-12-20T13:21:41;5.50;99.90
4828;DHT22;2428;48.732;9.148;2023-12-20T13:24:07;5.50;99.90
4828;DHT22;2428;48.732;9.148;2023-12-20T13:26:33;5.50;99.90
4828;DHT22;2428;48.732;9.148;2023-12-20T13:28:58;5.40;99.90
4828;DHT22;2428;48.732;9.148;2023-12-20T13:31:26;5.40;99.90
4828;DHT22;2428;48.732;9.148;2023-12-20T13:33:52;5.40;99.90
4828;DHT22;2428;48.732;9.148;2023-12-20T13:36:18;5.40;99.90
4828;DHT22;2428;48.732;9.148;2023-12-20T13:38:44;5.40;99.90
4828;DHT22;2428;48.732;9.148;2023-12-20T13:41:09;5.40;99.90
4828;DHT22;2428;48.732;9.148;2023-12-20T13:43:35;5.50;99.90
4828;DHT22;2428;48.732;9.148;2023-12-20T13:46:01;5.50;99.90
4828;DHT22;2428;48.732;9.148;2023-12-20T13:48:26;5.50;99.90
4828;DHT22;2428;48.732;9.148;2023-12-20T13:50:52;5.40;99.90
4828;DHT22;2428;48.732;9.148;2023-12-20T13:53:18;5.40;99.90
4828;DHT22;2428;48.732;9.148;2023-12-20T13:55:44;5.50;99.90
4828;DHT22;2428;48.732;9.148;2023-12-20T13:58:10;5.40;99.90
4828;DHT22;2428;48.732;9.148;2023-12-20T14:00:36;5.50;99.90
4828;DHT22;2428;48.732;9.148;2023-12-20T14:03:03;5.50;99.90
4828;DHT22;2428;48.732;9.148;2023-12-20T14:05:28;5.50;99.90
4828;DHT22;2428;48.732;9.148;2023-12-20T14:07:55;5.50;99.90
4828;DHT22;2428;48.732;9.148;2023-12-20T14:10:23;5.40;99.90
4828;DHT22;2428;48.732;9.148;2023-12-20T14:12:48;5.40;99.90
4828;DHT22;2428;48.732;9.148;2023-12-20T14:15:14;5.30;99.90
4828;DHT22;2428;48.732;9.148;2023-12-20T14:17:40;5.30;99.90
4828;DHT22;2428;48.732;9.148;2023-12-20T14:20:09;5.30;99.90
4828;DHT22;2428;48.732;9.148;2023-12-20T14:22:36;5.30;99.90
4828;DHT22;2428;48.732;9.148;2023-12-20T14:25:04;5.20;99.90
4828;DHT22;2428;48.732;9.148;2023-12-20T14:27:30;5.20;99.90
4828;DHT22;2428;48.732;9.148;2023-12-20T14:29:55;5.10;99.90
4828;DHT22;2428;48.732;9.148;2023-12-20T14:32:21;5.10;99.90
4828;DHT22;2428;48.732;9.148;2023-12-20T14:34:47;5.10;99.90
4828;DHT22;2428;48.732;9.148;2023-12-20T14:37:13;5.10;99.90
4828;DHT22;2428;48.732;9.148;2023-12-20T14:39:39;5.10;99.90
4828;DHT22;2428;48.732;9.148;2023-12-20T14:42:07;5.10;99.90
4828;DHT22;2428;48.732;9.148;2023-12-20T14:44:36;5.10;99.90
4828;DHT22;2428;48.732;9.148;2023-12-20T14:47:02;5.10;99.90
4828;DHT22;2428;48.732;9.148;2023-12-20T14:49:27;5.10;99.90
4828;DHT22;2428;48.732;9.148;2023-12-20T14:51:53;5.00;99.90
4828;DHT22;2428;48.732;9.148;2023-12-20T14:54:19;5.00;99.90
4828;DHT22;2428;48.732;9.148;2023-12-20T14:56:46;4.90;99.90
4828;DHT22;2428;48.732;9.148;2023-12-20T14:59:12;4.90;99.90
4828;DHT22;2428;48.732;9.148;2023-12-20T15:01:38;4.90;99.90
4828;DHT22;2428;48.732;9.148;2023-12-20T15:04:06;4.90;99.90
4828;DHT22;2428;48.732;9.148;2023-12-20T15:06:31;4.90;99.90
4828;DHT22;2428;48.732;9.148;2023-12-20T15:08:57;4.80;99.90
4828;DHT22;2428;48.732;9.148;2023-12-20T15:11:23;4.80;99.90
4828;DHT22;2428;48.732;9.148;2023-12-20T15:13:48;4.80;99.90
4828;DHT22;2428;48.732;9.148;2023-12-20T15:16:20;4.80;99.90
4828;DHT22;2428;48.732;9.148;2023-12-20T15:18:46;4.70;99.90
4828;DHT22;2428;48.732;9.148;2023-12-20T15:21:11;4.70;99.90
4828;DHT22;2428;48.732;9.148;2023-12-20T15:23:37;4.70;99.90
4828;DHT22;2428;48.732;9.148;2023-12-20T15:26:03;4.70;99.90
4828;DHT22;2428;48.732;9.148;2023-12-20T15:28:30;4.60;99.90
4828;DHT22;2428;48.732;9.148;2023-12-20T15:30:55;4.60;99.90
4828;DHT22;2428;48.732;9.148;2023-12-20T15:33:22;4.60;99.90
4828;DHT22;2428;48.732;9.148;2023-12-20T15:35:47;4.60;99.90
4828;DHT22;2428;48.732;9.148;2023-12-20T15:38:13;4.60;99.90
4828;DHT22;2428;48.732;9.148;2023-12-20T15:40:39;4.60;99.90
4828;DHT22;2428;48.732;9.148;2023-12-20T15:43:04;4.60;99.90
4828;DHT22;2428;48.732;9.148;2023-12-20T15:45:30;4.50;99.90
4828;DHT22;2428;48.732;9.148;2023-12-20T15:47:56;4.50;99.90
4828;DHT22;2428;48.732;9.148;2023-12-20T15:50:21;4.50;99.90
4828;DHT22;2428;48.732;9.148;2023-12-20T15:52:47;4.50;99.90
4828;DHT22;2428;48.732;9.148;2023-12-20T15:55:13;4.50;99.90
4828;DHT22;2428;48.732;9.148;2023-12-20T15:57:38;4.50;99.90
4828;DHT22;2428;48.732;9.148;2023-12-20T16:00:05;4.50;99.90
4828;DHT22;2428;48.732;9.148;2023-12-20T16:02:31;4.50;99.90
4828;DHT22;2428;48.732;9.148;2023-12-20T16:04:56;4.50;99.90
4828;DHT22;2428;48.732;9.148;2023-12-20T16:07:22;4.50;99.90
4828;DHT22;2428;48.732;9.148;2023-12-20T16:09:47;4.50;99.90
4828;DHT22;2428;48.732;9.148;2023-12-20T16:12:13;4.50;99.90